Time;durP1;ratioP1;P1;durP2;ratioP2;P2;SDS_P1;SDS_P2;PMS_P1;PMS_P2;Temp;Humidity;BMP_temperature;BMP_pressure;BME280_temperature;BME280_humidity;BME280_pressure;Samples;Min_cycle;Max_cycle;Signal;HPM_P1;HPM_P2
2022/08/09 00:01:38;;;;;;;13.35;8.00;;;;;;;14.73;89.48;102716.75;5135060;27;20115;-76
2022/08/09 00:04:04;;;;;;;13.55;8.63;;;;;;;14.68;89.46;102711.81;5135063;27;20358;-75
2022/08/09 00:06:30;;;;;;;9.95;7.40;;;;;;;14.73;89.39;102708.97;5134790;27;20031;-74
2022/08/09 00:08:55;;;;;;;12.57;7.82;;;;;;;14.70;89.57;102706.53;5134870;27;20063;-74
2022/08/09 00:11:21;;;;;;;11.45;7.20;;;;;;;14.63;89.51;102693.81;5134817;27;20051;-77
2022/08/09 00:13:48;;;;;;;9.68;6.43;;;;;;;14.68;89.10;102704.00;5134950;27;20077;-73
2022/08/09 00:16:13;;;;;;;11.57;7.20;;;;;;;14.69;89.06;102699.66;5134928;27;20423;-75
2022/08/09 00:18:39;;;;;;;9.45;7.38;;;;;;;14.72;89.38;102709.88;5134773;27;20088;-75
2022/08/09 00:21:06;;;;;;;11.95;6.70;;;;;;;14.71;89.03;102709.03;5134650;27;20102;-75
2022/08/09 00:23:33;;;;;;;9.90;6.95;;;;;;;14.62;89.06;102696.50;5134684;27;20031;-75
2022/08/09 00:25:58;;;;;;;8.63;6.70;;;;;;;14.66;89.08;102699.81;5134396;27;20033;-74
2022/08/09 00:28:24;;;;;;;9.70;6.32;;;;;;;14.63;88.98;102700.78;5134223;27;20098;-75
2022/08/09 00:30:50;;;;;;;11.82;6.55;;;;;;;14.61;89.05;102694.81;5133632;27;20498;-73
2022/08/09 00:33:16;;;;;;;9.95;6.57;;;;;;;14.62;89.27;102702.53;5134432;27;20359;-74
2022/08/09 00:35:41;;;;;;;9.20;6.03;;;;;;;14.57;89.02;102681.16;5134118;27;20092;-74
2022/08/09 00:38:11;;;;;;;9.15;6.45;;;;;;;14.50;88.98;102677.16;5134379;27;20058;-74
2022/08/09 00:40:36;;;;;;;8.25;6.55;;;;;;;14.58;89.14;102695.00;5134167;27;20106;-74
2022/08/09 00:43:02;;;;;;;8.77;5.90;;;;;;;14.52;89.08;102692.69;5134126;27;20553;-74
2022/08/09 00:45:27;;;;;;;8.52;6.32;;;;;;;14.51;89.45;102689.25;5133846;27;20104;-74
2022/08/09 00:47:53;;;;;;;8.73;6.43;;;;;;;14.25;89.31;102661.91;5134282;27;20479;-74
2022/08/09 00:50:18;;;;;;;9.80;6.80;;;;;;;14.47;89.54;102695.53;5134110;27;20106;-76
2022/08/09 00:52:44;;;;;;;11.00;6.20;;;;;;;14.41;89.51;102698.38;5134058;27;20106;-76
2022/08/09 00:55:09;;;;;;;9.25;6.53;;;;;;;14.39;89.89;102694.19;5133960;27;20042;-74
2022/08/09 00:57:35;;;;;;;10.52;6.25;;;;;;;14.31;89.54;102691.94;5133849;27;20023;-74
2022/08/09 01:00:01;;;;;;;10.32;6.80;;;;;;;14.27;90.08;102698.22;5133720;27;20019;-74
2022/08/09 01:02:29;;;;;;;9.10;6.28;;;;;;;14.24;89.76;102699.19;5134266;27;20034;-73
2022/08/09 01:05:07;;;;;;;10.52;6.47;;;;;;;14.16;90.32;102698.75;5134030;27;20023;-74
2022/08/09 01:07:57;;;;;;;9.05;6.00;;;;;;;14.18;90.09;102711.66;5133654;27;20034;-73
2022/08/09 01:10:32;;;;;;;10.70;5.88;;;;;;;14.06;90.16;102703.53;5133805;27;20064;-73
2022/08/09 01:13:12;;;;;;;9.93;6.10;;;;;;;14.04;90.13;102715.75;5134038;27;20382;-74
2022/08/09 01:15:44;;;;;;;9.38;5.90;;;;;;;14.01;90.09;102709.88;5133520;27;20035;-74
2022/08/09 01:18:15;;;;;;;13.20;6.88;;;;;;;13.98;91.36;102708.25;5133641;27;20165;-73
2022/08/09 01:20:58;;;;;;;7.78;6.22;;;;;;;13.92;90.46;102705.09;5133524;27;20378;-74
2022/08/09 01:23:48;;;;;;;8.73;6.25;;;;;;;13.85;90.50;102703.69;5133546;27;20103;-73
2022/08/09 01:26:32;;;;;;;11.00;6.40;;;;;;;13.88;90.40;102714.81;5133612;27;20027;-75
2022/08/09 01:29:00;;;;;;;10.82;6.97;;;;;;;13.73;90.74;102705.13;5133240;27;20058;-74
2022/08/09 01:31:29;;;;;;;7.80;6.15;;;;;;;13.78;90.89;102714.38;5133297;28;20023;-75
2022/08/09 01:33:58;;;;;;;9.55;6.55;;;;;;;13.74;91.95;102699.00;5133437;27;20102;-76
2022/08/09 01:36:25;;;;;;;10.50;6.95;;;;;;;13.81;91.62;102707.38;5133512;28;20027;-74
2022/08/09 01:38:52;;;;;;;11.50;7.68;;;;;;;13.78;91.98;102716.16;5133498;27;20210;-74
2022/08/09 01:41:22;;;;;;;8.20;6.50;;;;;;;13.73;91.51;102703.34;5133752;27;20153;-75
2022/08/09 01:43:50;;;;;;;9.85;6.72;;;;;;;13.70;91.19;102706.09;5135521;27;20062;-74
2022/08/09 01:46:20;;;;;;;9.27;6.43;;;;;;;13.64;91.35;102695.16;5137505;27;20110;-74
2022/08/09 01:48:47;;;;;;;14.55;7.10;;;;;;;13.68;92.34;102707.94;5137832;27;20400;-74
2022/08/09 01:51:14;;;;;;;9.75;7.47;;;;;;;13.69;92.73;102706.19;5137731;27;20026;-76
2022/08/09 01:53:41;;;;;;;11.27;7.20;;;;;;;13.58;92.95;102696.28;5137608;27;20023;-73
2022/08/09 01:56:09;;;;;;;11.88;7.57;;;;;;;13.65;92.73;102712.41;5137248;27;20407;-74
2022/08/09 01:58:35;;;;;;;11.02;7.53;;;;;;;13.69;93.13;102708.78;5137234;27;20023;-75
2022/08/09 02:01:02;;;;;;;16.23;7.47;;;;;;;13.64;92.28;102713.31;5137435;27;20043;-75
2022/08/09 02:03:31;;;;;;;10.75;7.47;;;;;;;13.63;93.07;102717.69;5137239;27;20057;-75
2022/08/09 02:05:57;;;;;;;11.55;7.55;;;;;;;13.64;93.18;102716.75;5137305;27;20087;-75
2022/08/09 02:08:24;;;;;;;10.20;7.85;;;;;;;13.51;92.75;102704.41;5137130;27;20019;-74
2022/08/09 02:10:53;;;;;;;10.65;7.53;;;;;;;13.60;93.51;102725.63;5136959;27;20031;-72
2022/08/09 02:13:22;;;;;;;9.30;7.45;;;;;;;13.63;93.78;102714.25;5137308;27;20068;-75
2022/08/09 02:15:50;;;;;;;10.40;7.45;;;;;;;13.64;93.93;102710.72;5137033;27;20031;-75
2022/08/09 02:18:19;;;;;;;10.57;7.55;;;;;;;13.64;93.28;102710.72;5137385;27;20462;-74
2022/08/09 02:20:50;;;;;;;10.07;7.80;;;;;;;13.63;93.68;102709.03;5137210;27;20106;-74
2022/08/09 02:23:39;;;;;;;14.52;8.20;;;;;;;13.63;93.79;102703.84;5137230;27;20050;-74
2022/08/09 02:26:06;;;;;;;11.88;7.72;;;;;;;13.62;94.34;102712.56;5136758;27;20024;-74
2022/08/09 02:28:39;;;;;;;11.80;7.60;;;;;;;13.56;93.83;102713.66;5118389;27;20039;-73
2022/08/09 02:31:10;;;;;;;13.00;8.02;;;;;;;13.58;94.26;102717.06;5136624;27;20023;-76
2022/08/09 02:33:39;;;;;;;10.95;7.60;;;;;;;13.58;94.28;102706.69;5136669;27;20055;-74
2022/08/09 02:36:11;;;;;;;12.77;8.30;;;;;;;13.57;94.54;102710.19;5136309;27;20440;-73
2022/08/09 02:38:45;;;;;;;12.20;8.35;;;;;;;13.37;94.34;102685.13;5136618;27;20087;-75
2022/08/09 02:41:15;;;;;;;11.15;8.20;;;;;;;13.49;94.58;102702.75;5136634;27;20029;-74
2022/08/09 02:43:44;;;;;;;13.43;8.25;;;;;;;13.48;94.64;102700.22;5136703;27;20027;-74
2022/08/09 02:46:12;;;;;;;14.30;8.10;;;;;;;13.47;94.63;102701.97;5136334;27;20051;-74
2022/08/09 02:48:39;;;;;;;12.77;8.85;;;;;;;13.43;95.27;102697.81;5136415;27;20023;-74
2022/08/09 02:51:09;;;;;;;13.27;8.43;;;;;;;13.47;95.58;102701.13;5136266;27;20023;-75
2022/08/09 02:53:40;;;;;;;13.85;7.72;;;;;;;13.44;95.30;102699.50;5135768;27;20031;-75
2022/08/09 02:56:07;;;;;;;;;;;;;;;13.47;93.41;102704.56;5136709;27;20084;-74
2022/08/09 02:58:34;;;;;;;10.98;8.20;;;;;;;13.44;95.64;102696.91;5136153;27;19965;-76
2022/08/09 03:01:01;;;;;;;11.95;8.27;;;;;;;13.39;95.73;102692.84;5135968;27;20415;-74
2022/08/09 03:03:28;;;;;;;14.88;8.93;;;;;;;13.41;96.23;102696.22;5135939;27;20054;-75
2022/08/09 03:05:56;;;;;;;12.60;7.82;;;;;;;13.32;95.85;102687.09;5136129;27;20015;-74
2022/08/09 03:08:26;;;;;;;12.18;7.93;;;;;;;13.41;95.69;102702.25;5136020;27;20015;-74
2022/08/09 03:10:54;;;;;;;13.10;7.90;;;;;;;13.30;96.03;102691.50;5136042;27;20076;-73
2022/08/09 03:13:21;;;;;;;12.30;9.00;;;;;;;13.28;96.52;102689.91;5136126;27;20023;-75
2022/08/09 03:15:47;;;;;;;11.98;8.45;;;;;;;13.35;95.94;102699.06;5135928;27;20034;-73
2022/08/09 03:18:13;;;;;;;13.18;8.18;;;;;;;13.33;96.33;102690.50;5117434;27;20023;-74
2022/08/09 03:20:41;;;;;;;11.00;7.70;;;;;;;13.29;95.94;102699.38;5135661;27;20023;-75
2022/08/09 03:23:06;;;;;;;12.45;9.15;;;;;;;13.29;96.73;102699.38;5135612;27;20030;-75
2022/08/09 03:25:32;;;;;;;13.68;8.25;;;;;;;13.25;95.92;102702.97;5135713;27;20031;-75
2022/08/09 03:28:00;;;;;;;12.48;8.20;;;;;;;13.06;96.85;102671.78;5135747;27;20027;-75
2022/08/09 03:30:26;;;;;;;13.80;8.52;;;;;;;13.18;96.03;102700.66;5135467;27;20411;-74
2022/08/09 03:32:54;;;;;;;15.77;8.40;;;;;;;13.09;96.30;102688.06;5135447;27;20455;-74
2022/08/09 03:35:20;;;;;;;13.00;8.60;;;;;;;13.01;96.43;102681.53;5135117;27;20047;-75
2022/08/09 03:37:45;;;;;;;12.82;9.57;;;;;;;13.10;96.70;102701.88;5135616;27;20031;-74
2022/08/09 03:40:11;;;;;;;12.52;8.60;;;;;;;13.10;97.54;102710.50;5135581;27;20369;-74
2022/08/09 03:42:37;;;;;;;13.65;9.35;;;;;;;12.95;97.34;102687.81;5135919;27;20055;-76
2022/08/09 03:45:03;;;;;;;13.57;9.35;;;;;;;13.07;97.34;102714.97;5135419;27;20049;-73
2022/08/09 03:47:29;;;;;;;12.20;8.77;;;;;;;12.99;96.57;102706.69;5135030;27;20034;-77
2022/08/09 03:49:55;;;;;;;14.55;9.15;;;;;;;12.96;97.79;102706.81;5134949;27;20370;-74
2022/08/09 03:52:22;;;;;;;13.70;9.18;;;;;;;13.00;97.53;102710.97;5135327;27;20019;-77
2022/08/09 03:54:51;;;;;;;14.63;9.07;;;;;;;12.95;97.41;102715.50;5135404;27;20026;-74
2022/08/09 03:57:17;;;;;;;14.95;9.18;;;;;;;12.93;97.49;102715.56;5135044;27;20027;-74
2022/08/09 03:59:43;;;;;;;16.33;9.25;;;;;;;12.93;97.62;102718.16;5135153;27;20461;-74
2022/08/09 04:02:09;;;;;;;15.57;9.68;;;;;;;12.81;97.81;102697.94;5116415;27;20015;-73
2022/08/09 04:04:35;;;;;;;16.20;9.85;;;;;;;12.92;98.42;102713.88;5134631;27;20359;-73
2022/08/09 04:07:01;;;;;;;15.07;9.18;;;;;;;12.83;97.57;102707.34;5133972;27;20125;-75
2022/08/09 04:09:27;;;;;;;13.02;8.82;;;;;;;12.77;97.35;102696.38;5134740;27;20034;-73
2022/08/09 04:12:07;;;;;;;12.55;9.07;;;;;;;12.76;97.24;102698.13;5134842;27;20031;-76
2022/08/09 04:14:33;;;;;;;12.10;8.63;;;;;;;12.61;96.92;102678.91;5134792;27;20037;-78
2022/08/09 04:16:58;;;;;;;15.38;9.07;;;;;;;12.69;96.93;102696.72;5134297;27;20114;-75
2022/08/09 04:19:23;;;;;;;14.75;9.48;;;;;;;12.53;96.86;102680.97;5134641;27;20015;-76
2022/08/09 04:21:49;;;;;;;13.93;8.95;;;;;;;12.64;96.85;102709.88;5116288;27;20085;-75
2022/08/09 04:24:14;;;;;;;13.27;9.32;;;;;;;12.68;97.01;102709.72;5134811;27;20023;-74
2022/08/09 04:26:39;;;;;;;14.25;9.70;;;;;;;12.66;96.90;102707.19;5134527;27;20031;-72
2022/08/09 04:29:05;;;;;;;13.90;9.27;;;;;;;12.69;97.72;102708.84;5134418;27;20161;-74
2022/08/09 04:31:30;;;;;;;15.10;9.15;;;;;;;12.65;97.77;102702.94;5134249;27;20045;-75
2022/08/09 04:33:57;;;;;;;15.52;9.15;;;;;;;12.69;97.54;102709.69;5133886;27;20111;-75
2022/08/09 04:36:25;;;;;;;14.80;9.52;;;;;;;12.68;98.12;102720.09;5134404;27;20031;-74
2022/08/09 04:38:51;;;;;;;13.40;9.18;;;;;;;12.72;98.39;102713.91;5134229;27;20027;-77
2022/08/09 04:41:16;;;;;;;12.65;9.82;;;;;;;12.76;98.47;102723.22;5134329;27;20106;-74
2022/08/09 04:43:41;;;;;;;16.45;10.40;;;;;;;12.84;99.71;102721.16;5134337;27;20442;-76
2022/08/09 04:46:07;;;;;;;13.98;9.82;;;;;;;12.70;99.87;102689.78;5134201;27;20110;-78
2022/08/09 04:48:32;;;;;;;15.43;10.10;;;;;;;12.87;100.00;102714.06;5133877;27;20030;-76
2022/08/09 04:50:57;;;;;;;14.52;8.77;;;;;;;13.16;100.00;102733.56;5133911;27;20031;-73
2022/08/09 04:53:22;;;;;;;11.40;7.90;;;;;;;13.28;99.90;102708.06;5133990;27;20527;-80
2022/08/09 04:55:49;;;;;;;11.88;7.97;;;;;;;13.46;98.87;102705.44;5134048;27;20026;-82
2022/08/09 04:58:14;;;;;;;14.82;9.00;;;;;;;13.55;97.83;102700.75;5133883;27;20019;-82
2022/08/09 05:00:39;;;;;;;11.13;6.85;;;;;;;14.05;96.91;102735.59;5133725;27;20080;-78
2022/08/09 05:03:05;;;;;;;14.15;7.72;;;;;;;14.21;95.42;102732.28;5133735;27;20047;-78
2022/08/09 05:05:30;;;;;;;11.13;7.68;;;;;;;14.27;94.84;102725.06;5133606;27;20060;-83
2022/08/09 05:07:56;;;;;;;12.30;7.53;;;;;;;14.27;94.24;102717.25;5133813;27;20019;-82
2022/08/09 05:10:22;;;;;;;13.95;8.80;;;;;;;14.43;93.67;102738.13;5133711;27;20027;-81
2022/08/09 05:12:48;;;;;;;13.63;9.15;;;;;;;14.50;93.32;102741.31;5133699;27;20027;-79
2022/08/09 05:15:13;;;;;;;13.02;8.05;;;;;;;14.49;92.72;102717.06;5133728;27;20049;-81
2022/08/09 05:17:39;;;;;;;13.57;8.02;;;;;;;14.76;92.21;102745.25;5133282;27;20542;-80
2022/08/09 05:20:05;;;;;;;15.18;9.40;;;;;;;14.99;91.21;102742.31;5133468;27;20457;-81
2022/08/09 05:22:31;;;;;;;12.75;8.73;;;;;;;15.10;90.06;102719.16;5133629;27;20482;-79
2022/08/09 05:24:56;;;;;;;14.13;9.32;;;;;;;15.35;89.14;102733.53;5133621;27;20126;-79
2022/08/09 05:27:21;;;;;;;14.63;9.77;;;;;;;15.35;89.01;102739.56;5133518;27;20390;-73
2022/08/09 05:29:47;;;;;;;15.80;9.25;;;;;;;15.71;87.71;102735.94;5133691;27;20072;-75
2022/08/09 05:32:12;;;;;;;12.00;8.02;;;;;;;15.78;86.50;102738.13;5133623;28;20015;-80
2022/08/09 05:34:37;;;;;;;12.77;8.85;;;;;;;15.90;86.59;102748.81;5133279;27;20458;-74
2022/08/09 05:37:05;;;;;;;13.65;8.98;;;;;;;15.89;86.12;102750.56;5133304;28;20035;-76
2022/08/09 05:39:30;;;;;;;14.00;8.95;;;;;;;15.74;86.58;102752.25;5133451;28;20088;-74
2022/08/09 05:41:56;;;;;;;14.85;8.65;;;;;;;15.34;87.40;102710.97;5133386;28;20011;-76
2022/08/09 05:44:21;;;;;;;14.18;9.45;;;;;;;15.91;87.88;102740.06;5133441;28;20015;-75
2022/08/09 05:46:47;;;;;;;13.10;9.00;;;;;;;17.19;82.98;102750.91;5133486;27;20065;-75
2022/08/09 05:49:12;;;;;;;12.40;8.35;;;;;;;18.81;76.39;102745.84;5133106;28;20011;-74
2022/08/09 05:51:38;;;;;;;12.07;8.30;;;;;;;19.83;70.91;102741.34;5132078;27;20518;-74
2022/08/09 05:54:03;;;;;;;17.20;8.43;;;;;;;20.79;67.32;102750.00;5134231;28;20020;-71
2022/08/09 05:56:28;;;;;;;10.02;6.30;;;;;;;21.61;63.12;102712.97;5133136;28;20030;-76
2022/08/09 05:58:56;;;;;;;12.90;7.13;;;;;;;22.54;60.08;102750.94;5133264;28;20027;-75
2022/08/09 06:01:27;;;;;;;11.45;7.88;;;;;;;23.31;58.79;102745.28;5133042;28;20077;-75
2022/08/09 06:03:52;;;;;;;9.55;6.50;;;;;;;23.62;55.53;102732.91;5133039;28;20026;-78
2022/08/09 06:06:17;;;;;;;12.45;6.95;;;;;;;24.02;54.71;102753.94;5133034;28;20373;-76
2022/08/09 06:08:43;;;;;;;10.93;6.72;;;;;;;24.07;54.20;102757.94;5133008;27;20469;-73
2022/08/09 06:11:08;;;;;;;8.68;6.07;;;;;;;24.15;53.20;102761.56;5133233;27;20023;-81
2022/08/09 06:13:34;;;;;;;10.35;6.55;;;;;;;24.39;53.06;102757.72;5133136;28;20351;-80
2022/08/09 06:16:01;;;;;;;10.75;6.70;;;;;;;24.69;52.08;102748.78;5133235;28;20477;-77
2022/08/09 06:18:26;;;;;;;8.88;6.07;;;;;;;24.63;52.31;102768.66;5133159;28;20016;-74
2022/08/09 06:20:54;;;;;;;8.57;5.88;;;;;;;24.98;51.33;102759.28;5132569;28;20103;-75
2022/08/09 06:23:19;;;;;;;11.07;6.68;;;;;;;25.10;50.74;102777.47;5114518;27;20027;-76
2022/08/09 06:25:44;;;;;;;9.48;6.03;;;;;;;25.70;49.60;102779.72;5133031;28;20046;-77
2022/08/09 06:28:10;;;;;;;8.48;5.07;;;;;;;26.16;47.58;102752.22;5132863;27;20027;-77
2022/08/09 06:30:35;;;;;;;10.25;5.70;;;;;;;26.09;47.45;102771.50;5136265;27;20050;-80
2022/08/09 06:33:01;;;;;;;7.35;4.97;;;;;;;25.83;48.47;102774.91;5136777;27;20101;-75
2022/08/09 06:35:27;;;;;;;9.98;6.85;;;;;;;26.03;48.03;102772.94;5136284;27;20053;-79
2022/08/09 06:37:52;;;;;;;9.90;6.15;;;;;;;26.14;47.58;102774.53;5136357;27;20023;-75
2022/08/09 06:40:18;;;;;;;9.50;6.35;;;;;;;26.80;46.77;102768.78;5136804;27;20105;-75
2022/08/09 06:42:43;;;;;;;12.23;6.85;;;;;;;26.85;45.59;102766.50;5136591;27;20060;-73
2022/08/09 06:45:09;;;;;;;10.20;6.90;;;;;;;26.15;47.25;102762.94;5136664;27;20051;-76
2022/08/09 06:47:34;;;;;;;12.65;6.25;;;;;;;26.03;47.58;102772.94;5136598;27;20023;-73
2022/08/09 06:49:59;;;;;;;10.45;6.60;;;;;;;26.02;47.31;102765.97;5136265;27;20064;-75
2022/08/09 06:52:25;;;;;;;8.50;5.93;;;;;;;26.33;46.78;102771.72;5136154;27;20031;-73
2022/08/09 06:54:51;;;;;;;9.85;5.97;;;;;;;26.68;45.90;102751.47;5136353;27;20046;-75
2022/08/09 06:57:16;;;;;;;10.90;6.32;;;;;;;27.25;44.57;102768.56;5136328;27;20088;-75
2022/08/09 06:59:41;;;;;;;11.20;6.78;;;;;;;27.57;44.27;102775.78;5136215;27;20084;-75
2022/08/09 07:02:07;;;;;;;12.00;6.93;;;;;;;27.93;43.55;102776.41;5136333;27;20064;-76
2022/08/09 07:04:32;;;;;;;10.20;6.20;;;;;;;28.06;42.90;102765.31;5135953;27;20458;-76
2022/08/09 07:06:58;;;;;;;9.88;5.90;;;;;;;28.38;42.21;102782.28;5135356;27;20381;-72
2022/08/09 07:09:23;;;;;;;11.27;7.25;;;;;;;28.38;42.28;102775.13;5136723;27;20015;-73
2022/08/09 07:11:49;;;;;;;11.18;6.50;;;;;;;28.16;42.33;102781.06;5136506;27;20031;-75
2022/08/09 07:14:16;;;;;;;10.40;6.75;;;;;;;28.25;41.92;102788.88;5136175;27;20045;-76
2022/08/09 07:16:45;;;;;;;11.00;6.90;;;;;;;28.44;42.18;102792.25;5135798;27;20508;-75
2022/08/09 07:19:12;;;;;;;11.68;7.03;;;;;;;28.16;42.65;102775.75;5135583;27;20031;-76
2022/08/09 07:21:38;;;;;;;7.75;5.60;;;;;;;28.59;42.30;102782.56;5135526;27;20034;-76
2022/08/09 07:24:04;;;;;;;8.80;5.85;;;;;;;29.07;40.46;102784.31;5135476;27;20106;-74
2022/08/09 07:26:29;;;;;;;12.00;7.85;;;;;;;28.98;40.71;102777.38;5135915;27;20055;-75
2022/08/09 07:28:55;;;;;;;10.52;7.20;;;;;;;27.48;42.91;102791.84;5135600;27;20098;-75
2022/08/09 07:31:20;;;;;;;10.65;7.47;;;;;;;25.70;47.29;102790.31;5135594;27;20475;-73
2022/08/09 07:33:46;;;;;;;11.80;7.22;;;;;;;24.14;51.48;102777.56;5135211;27;20023;-74
2022/08/09 07:36:12;;;;;;;13.07;7.93;;;;;;;22.78;55.21;102789.34;5135415;27;20031;-75
2022/08/09 07:38:37;;;;;;;10.93;8.77;;;;;;;21.87;58.22;102795.91;5135529;27;20027;-74
2022/08/09 07:41:03;;;;;;;12.52;8.75;;;;;;;21.26;61.29;102791.97;5135167;27;20027;-75
2022/08/09 07:43:28;;;;;;;12.15;8.40;;;;;;;20.61;63.30;102781.09;5135287;27;20052;-75
2022/08/09 07:45:54;;;;;;;13.45;8.27;;;;;;;20.55;64.41;102785.94;5135447;27;20031;-74
2022/08/09 07:48:19;;;;;;;15.82;8.60;;;;;;;20.56;64.71;102798.16;5135352;27;20530;-71
2022/08/09 07:50:45;;;;;;;12.55;8.60;;;;;;;20.37;66.20;102795.16;5135163;27;20102;-73
2022/08/09 07:53:10;;;;;;;15.48;9.93;;;;;;;20.30;66.31;102800.84;5135138;27;20049;-74
2022/08/09 07:55:35;;;;;;;13.40;8.98;;;;;;;20.11;67.25;102804.94;5134983;27;20028;-74
2022/08/09 07:58:02;;;;;;;14.88;8.65;;;;;;;20.12;66.92;102810.06;5135133;27;20023;-75
2022/08/09 08:00:28;;;;;;;13.60;9.02;;;;;;;20.12;68.07;102789.06;5135139;27;20031;-75
2022/08/09 08:02:55;;;;;;;13.75;8.85;;;;;;;20.25;67.20;102802.97;5134883;27;20432;-74
2022/08/09 08:05:20;;;;;;;14.90;9.90;;;;;;;20.15;67.03;102796.72;5134909;27;20047;-74
2022/08/09 08:07:45;;;;;;;12.77;8.70;;;;;;;20.18;67.31;102800.91;5134893;27;20382;-73
2022/08/09 08:10:11;;;;;;;11.55;6.75;;;;;;;20.10;66.93;102793.59;5134719;27;20114;-72
2022/08/09 08:12:38;;;;;;;14.50;8.68;;;;;;;20.20;66.82;102806.88;5116174;27;20035;-73
2022/08/09 08:15:04;;;;;;;13.95;8.70;;;;;;;20.11;66.64;102795.25;5134515;27;20023;-73
2022/08/09 08:17:30;;;;;;;13.63;8.32;;;;;;;20.19;66.46;102811.28;5134556;27;20080;-74
2022/08/09 08:19:55;;;;;;;15.38;8.52;;;;;;;20.16;67.16;102795.78;5134714;27;20023;-74
2022/08/09 08:22:21;;;;;;;13.93;8.95;;;;;;;20.20;67.25;102807.72;5134547;27;20106;-72
2022/08/09 08:24:48;;;;;;;11.40;7.93;;;;;;;20.20;67.17;102802.47;5134346;27;20106;-73
2022/08/09 08:27:13;;;;;;;19.23;9.20;;;;;;;20.35;67.10;102795.25;5134430;27;20443;-73
2022/08/09 08:29:38;;;;;;;14.25;8.93;;;;;;;20.28;66.89;102784.41;5134100;27;20058;-72
2022/08/09 08:32:04;;;;;;;14.63;8.23;;;;;;;20.29;67.80;102775.56;5134481;27;20032;-73
2022/08/09 08:34:29;;;;;;;12.20;8.25;;;;;;;20.43;66.65;102794.72;5134260;27;20043;-73
2022/08/09 08:36:56;;;;;;;15.07;7.82;;;;;;;20.58;68.10;102794.44;5134014;27;20078;-71
2022/08/09 08:39:21;;;;;;;10.77;7.35;;;;;;;20.67;67.06;102790.31;5134249;27;20071;-73
2022/08/09 08:41:46;;;;;;;13.75;8.13;;;;;;;20.57;65.74;102784.06;5134056;27;20046;-71
2022/08/09 08:44:13;;;;;;;12.57;7.45;;;;;;;20.58;66.75;102791.00;5134081;27;20449;-71
2022/08/09 08:46:40;;;;;;;12.65;7.18;;;;;;;20.78;66.43;102800.84;5134279;27;20019;-71
2022/08/09 08:49:06;;;;;;;10.05;5.63;;;;;;;20.91;65.48;102804.19;5134208;27;20019;-74
2022/08/09 08:51:32;;;;;;;9.80;6.70;;;;;;;20.97;64.73;102802.91;5133362;27;20025;-74
2022/08/09 08:53:58;;;;;;;12.35;6.68;;;;;;;20.96;63.67;102806.50;5134108;27;20027;-73
2022/08/09 08:56:24;;;;;;;10.35;5.85;;;;;;;20.98;63.53;102809.00;5133764;27;20027;-73
2022/08/09 08:58:50;;;;;;;8.52;4.70;;;;;;;20.87;62.22;102779.13;5133886;27;20023;-74
2022/08/09 09:01:17;;;;;;;8.45;4.45;;;;;;;21.08;62.14;102799.47;5133991;27;20378;-72
2022/08/09 09:03:43;;;;;;;8.32;4.57;;;;;;;21.11;60.22;102800.06;5133853;27;20027;-72
2022/08/09 09:06:12;;;;;;;8.23;4.20;;;;;;;21.18;60.79;102806.53;5133969;27;20087;-76
2022/08/09 09:08:39;;;;;;;10.43;4.00;;;;;;;21.25;59.12;102816.56;5133658;27;20026;-74
2022/08/09 09:11:06;;;;;;;8.32;4.32;;;;;;;21.23;60.28;102814.03;5133658;27;20026;-75
2022/08/09 09:13:37;;;;;;;7.65;3.75;;;;;;;21.27;60.03;102814.69;5133717;27;20038;-75
2022/08/09 09:16:03;;;;;;;8.75;4.00;;;;;;;21.25;58.77;102816.56;5133835;27;20026;-72
2022/08/09 09:18:28;;;;;;;9.20;3.70;;;;;;;21.23;59.27;102814.03;5133714;27;20023;-76
2022/08/09 09:20:53;;;;;;;7.35;3.42;;;;;;;21.38;60.96;102826.03;5133648;27;20121;-72
2022/08/09 09:23:45;;;;;;;6.30;3.25;;;;;;;21.34;59.64;102819.38;5133633;27;20027;-75
2022/08/09 09:26:12;;;;;;;8.45;3.30;;;;;;;21.29;59.01;102797.84;5133508;27;20050;-72
2022/08/09 09:28:43;;;;;;;7.28;3.20;;;;;;;21.55;58.86;102824.75;5133527;27;20027;-74
2022/08/09 09:31:14;;;;;;;7.90;3.47;;;;;;;21.39;57.84;102808.47;5132635;27;20031;-74
2022/08/09 09:33:40;;;;;;;6.32;3.13;;;;;;;21.53;58.50;102818.75;5134138;28;20035;-75
2022/08/09 09:36:07;;;;;;;7.65;3.03;;;;;;;21.51;57.32;102820.66;5133575;27;20043;-74
2022/08/09 09:38:49;;;;;;;7.57;3.08;;;;;;;21.53;58.26;102817.91;5133065;28;20379;-74
2022/08/09 09:41:26;;;;;;;7.15;3.30;;;;;;;21.53;58.21;102810.84;5133230;28;20024;-75
2022/08/09 09:43:56;;;;;;;7.75;2.80;;;;;;;21.61;58.71;102794.50;5133575;28;20057;-74
2022/08/09 09:46:36;;;;;;;5.90;2.20;;;;;;;21.83;55.69;102819.91;5133549;27;20026;-74
2022/08/09 09:49:10;;;;;;;4.53;1.90;;;;;;;21.90;55.24;102818.47;5133244;28;20019;-72
2022/08/09 09:51:38;;;;;;;5.78;1.80;;;;;;;21.97;53.71;102820.50;5133467;27;20024;-74
2022/08/09 09:54:04;;;;;;;6.38;1.65;;;;;;;22.03;54.37;102816.56;5133071;28;20536;-73
2022/08/09 09:56:32;;;;;;;4.20;1.77;;;;;;;22.10;55.12;102819.56;5133256;28;20054;-76
2022/08/09 09:58:58;;;;;;;6.32;1.70;;;;;;;22.15;53.37;102818.22;5133126;28;20466;-74
2022/08/09 10:01:23;;;;;;;3.42;1.73;;;;;;;22.02;52.87;102797.31;5133240;27;20031;-74
2022/08/09 10:03:51;;;;;;;3.70;1.85;;;;;;;22.21;54.20;102827.41;5133795;27;20069;-74
2022/08/09 10:06:17;;;;;;;2.80;2.00;;;;;;;22.26;53.05;102820.81;5137103;27;20049;-75
2022/08/09 10:08:44;;;;;;;2.38;1.58;;;;;;;22.24;52.54;102817.50;5137149;27;20122;-74
2022/08/09 10:11:26;;;;;;;5.88;1.83;;;;;;;22.13;51.72;102801.75;5137071;27;20027;-75
2022/08/09 10:13:52;;;;;;;4.35;1.70;;;;;;;22.19;50.94;102801.22;5137498;27;20024;-73
2022/08/09 10:16:36;;;;;;;7.35;1.60;;;;;;;22.29;51.39;102817.09;5136794;27;20033;-75
2022/08/09 10:19:06;;;;;;;5.03;1.52;;;;;;;22.39;51.49;102822.44;5135437;27;20466;-72
2022/08/09 10:21:33;;;;;;;2.60;1.65;;;;;;;22.41;50.52;102813.47;5137818;27;20076;-74
2022/08/09 10:24:01;;;;;;;4.20;1.55;;;;;;;22.46;50.18;102816.56;5137335;27;20102;-74
2022/08/09 10:26:27;;;;;;;2.55;1.88;;;;;;;22.40;50.29;102811.78;5137359;27;20469;-72
2022/08/09 10:28:54;;;;;;;5.63;1.70;;;;;;;22.47;50.96;102810.34;5136912;27;20027;-72
2022/08/09 10:31:19;;;;;;;3.63;1.17;;;;;;;22.56;49.79;102798.22;5137229;27;20051;-73
2022/08/09 10:33:45;;;;;;;4.80;1.40;;;;;;;22.60;49.41;102804.88;5136847;27;20464;-71
2022/08/09 10:36:12;;;;;;;3.42;1.40;;;;;;;22.58;49.32;102799.75;5136414;27;20051;-72
2022/08/09 10:38:41;;;;;;;4.25;1.42;;;;;;;22.65;48.20;102796.63;5117670;27;20478;-71
2022/08/09 10:41:07;;;;;;;2.97;1.30;;;;;;;22.79;48.64;102789.22;5136687;27;20019;-73
2022/08/09 10:43:34;;;;;;;4.05;1.30;;;;;;;22.80;47.59;102780.34;5136085;27;20347;-72
2022/08/09 10:46:37;;;;;;;3.45;1.35;;;;;;;22.81;48.61;102786.44;5117660;27;20046;-71
2022/08/09 10:49:12;;;;;;;3.42;1.50;;;;;;;22.73;47.26;102770.47;5136568;27;20042;-73
2022/08/09 10:51:51;;;;;;;3.05;1.23;;;;;;;22.80;47.83;102782.16;5136446;27;20023;-70
2022/08/09 10:54:22;;;;;;;3.40;1.88;;;;;;;22.76;47.61;102781.59;5136315;27;20203;-73
2022/08/09 10:57:04;;;;;;;;;;;;;;;22.82;49.43;102781.06;5136801;27;20035;-73
2022/08/09 10:59:30;;;;;;;3.15;1.27;;;;;;;22.80;47.92;102761.06;5136437;27;19911;-74
2022/08/09 11:01:55;;;;;;;4.57;1.30;;;;;;;22.99;48.00;102776.19;5136159;27;20023;-79
2022/08/09 11:04:25;;;;;;;4.50;1.30;;;;;;;23.06;46.59;102780.00;5136172;27;20027;-76
2022/08/09 11:06:57;;;;;;;4.72;1.20;;;;;;;23.06;45.92;102783.44;5136175;27;20038;-78
2022/08/09 11:09:42;;;;;;;;;;;;;;;23.02;47.31;102782.06;5136446;27;20046;-75
2022/08/09 11:12:40;;;;;;;4.20;1.25;;;;;;;23.03;48.44;102764.44;5135998;27;19915;-79
2022/08/09 11:15:17;;;;;;;5.85;1.80;;;;;;;23.18;46.19;102782.41;5032366;28;20168;-76
2022/08/09 11:17:45;;;;;;;5.65;1.83;;;;;;;23.12;47.13;102779.47;5032480;28;20046;-76
2022/08/09 11:20:11;;;;;;;3.80;1.52;;;;;;;23.07;46.58;102768.47;5032785;28;20037;-77
2022/08/09 11:22:39;;;;;;;4.22;1.38;;;;;;;23.30;47.03;102779.66;5032812;28;20029;-78
2022/08/09 11:25:11;;;;;;;2.90;1.10;;;;;;;23.40;46.12;102780.53;5032470;28;20164;-77